createdAt,value
2019-05-12T00:02:51.036Z,100162.27
2019-05-12T00:06:59.279Z,100155.98
2019-05-12T00:11:08.989Z,100157.44
2019-05-12T00:15:19.278Z,100162.93
2019-05-12T00:19:28.585Z,100160.48
2019-05-12T00:23:58.062Z,100170.70
2019-05-12T00:28:05.158Z,100165.94
2019-05-12T00:32:13.769Z,100161.06
2019-05-12T00:36:22.402Z,100153.48
2019-05-12T00:40:30.247Z,100153.70
2019-05-12T00:44:39.169Z,100158.17
2019-05-12T00:48:48.345Z,100158.63
2019-05-12T00:52:57.954Z,100159.16
2019-05-12T00:57:07.678Z,100162.39
2019-05-12T01:01:18.272Z,100161.44
2019-05-12T01:05:25.610Z,100163.83
2019-05-12T01:09:33.879Z,100169.97
2019-05-12T01:13:41.502Z,100165.63
2019-05-12T01:17:49.621Z,100157.46
2019-05-12T01:21:58.711Z,100159.44
2019-05-12T01:26:08.844Z,100159.22
2019-05-12T01:30:18.035Z,100154.20
2019-05-12T01:34:27.801Z,100153.00
2019-05-12T01:38:37.798Z,100162.59
2019-05-12T01:42:45.374Z,100158.41
2019-05-12T01:46:53.797Z,100165.21
2019-05-12T01:51:01.424Z,100166.32
2019-05-12T01:55:10.036Z,100160.98
2019-05-12T01:59:18.574Z,100160.80
2019-05-12T02:03:28.193Z,100156.00
2019-05-12T02:07:40.376Z,100156.39
2019-05-12T02:11:48.573Z,100154.27
2019-05-12T02:15:57.872Z,100150.73
2019-05-12T02:20:07.870Z,100155.61
2019-05-12T02:24:24.342Z,100150.41
2019-05-12T02:28:25.199Z,100158.41
2019-05-12T02:32:47.230Z,100161.28
2019-05-12T02:36:44.799Z,100163.27
2019-05-12T02:40:55.396Z,100167.30
2019-05-12T02:45:05.527Z,100168.26
2019-05-12T02:49:14.648Z,100169.20
2019-05-12T02:53:24.793Z,100170.56
2019-05-12T02:57:34.342Z,100181.41
2019-05-12T03:01:45.246Z,100174.73
2019-05-12T03:05:55.090Z,100180.89
2019-05-12T03:10:05.140Z,100187.82
2019-05-12T03:14:15.693Z,100192.90
2019-05-12T03:18:25.131Z,100197.50
2019-05-12T03:22:35.281Z,100206.05
2019-05-12T03:26:45.006Z,100212.29
2019-05-12T03:30:57.766Z,100218.17
2019-05-12T03:35:08.164Z,100215.04
2019-05-12T03:39:15.021Z,100220.44
2019-05-12T03:43:24.452Z,100224.78
2019-05-12T03:47:35.582Z,100232.92
2019-05-12T03:51:45.239Z,100240.78
2019-05-12T03:55:55.067Z,100247.50
2019-05-12T04:00:04.950Z,100254.75
2019-05-12T04:04:11.334Z,100255.86
2019-05-12T04:08:19.273Z,100263.00
2019-05-12T04:12:26.979Z,100259.58
2019-05-12T04:16:36.425Z,100260.64
2019-05-12T04:20:45.510Z,100255.76
2019-05-12T04:24:55.130Z,100255.23
2019-05-12T04:29:05.061Z,100258.50
2019-05-12T04:33:15.494Z,100263.34
2019-05-12T04:37:24.909Z,100267.80
2019-05-12T04:41:35.436Z,100270.69
2019-05-12T04:45:45.055Z,100275.15
2019-05-12T04:49:54.593Z,100277.87
2019-05-12T04:54:05.375Z,100285.22
2019-05-12T04:58:15.620Z,100289.59
2019-05-12T05:02:25.017Z,100287.89
2019-05-12T05:06:34.011Z,100283.75
2019-05-12T05:10:40.567Z,100281.17
2019-05-12T05:14:48.486Z,100282.48
2019-05-12T05:18:56.738Z,100284.72
2019-05-12T05:23:04.996Z,100288.05
2019-05-12T05:27:13.319Z,100290.40
2019-05-12T05:31:21.484Z,100285.08
2019-05-12T05:35:35.137Z,100285.83
2019-05-12T05:39:47.960Z,100288.81
2019-05-12T05:43:52.954Z,100291.08
2019-05-12T05:47:59.676Z,100292.64
2019-05-12T05:52:07.549Z,100292.64
2019-05-12T05:56:18.207Z,100289.34
2019-05-12T06:00:26.335Z,100289.16
2019-05-12T06:04:34.453Z,100297.36
2019-05-12T06:08:47.038Z,100307.20
2019-05-12T06:12:54.761Z,100312.28
2019-05-12T06:17:04.344Z,100314.36
2019-05-12T06:21:13.697Z,100316.91
2019-05-12T06:25:21.558Z,100319.87
2019-05-12T06:29:29.582Z,100330.52
2019-05-12T06:33:39.032Z,100331.93
2019-05-12T06:37:57.372Z,100325.77
2019-05-12T06:42:01.930Z,100324.10
2019-05-12T06:46:06.711Z,100325.45
2019-05-12T06:50:14.765Z,100323.47
2019-05-12T06:54:24.709Z,100328.35
2019-05-12T06:58:34.369Z,100316.18
2019-05-12T07:02:50.041Z,100318.72
2019-05-12T07:06:56.185Z,100318.36
2019-05-12T07:11:05.941Z,100318.16
2019-05-12T07:15:14.271Z,100315.91
2019-05-12T07:19:23.373Z,100318.42
2019-05-12T07:23:33.682Z,100319.60
2019-05-12T07:27:47.304Z,100311.03
2019-05-12T07:31:53.663Z,100313.94
2019-05-12T07:36:06.454Z,100321.41
2019-05-12T07:40:13.717Z,100324.02
2019-05-12T07:44:25.315Z,100324.43
2019-05-12T07:48:33.505Z,100324.66
2019-05-12T07:52:44.163Z,100332.28
2019-05-12T07:56:53.968Z,100326.16
2019-05-12T08:01:02.706Z,100337.12
2019-05-12T08:05:19.551Z,100332.33
2019-05-12T08:09:24.147Z,100323.98
2019-05-12T08:13:35.993Z,100334.91
2019-05-12T08:17:40.539Z,100332.72
2019-05-12T08:21:49.173Z,100321.78
2019-05-12T08:25:57.809Z,100330.85
2019-05-12T08:30:06.911Z,100335.29
2019-05-12T08:34:14.842Z,100347.19
2019-05-12T08:38:24.886Z,100347.67
2019-05-12T08:42:34.421Z,100340.22
2019-05-12T08:46:51.910Z,100350.38
2019-05-12T08:50:54.494Z,100353.05
2019-05-12T08:55:04.306Z,100357.88
2019-05-12T08:59:17.582Z,100360.47
2019-05-12T09:03:27.189Z,100358.55
2019-05-12T09:07:35.807Z,100358.55
2019-05-12T09:11:41.109Z,100363.45
2019-05-12T09:15:48.654Z,100361.92
2019-05-12T09:20:03.661Z,100361.92
2019-05-12T09:24:06.087Z,100367.91
2019-05-12T09:28:13.985Z,100366.41
2019-05-12T09:32:23.511Z,100366.89
2019-05-12T09:36:33.927Z,100365.64
2019-05-12T09:40:43.547Z,100369.19
2019-05-12T09:44:50.900Z,100359.80
2019-05-12T09:48:58.850Z,100354.84
2019-05-12T09:53:11.503Z,100354.66
2019-05-12T09:57:17.108Z,100361.17
2019-05-12T10:01:29.260Z,100363.06
2019-05-12T10:05:41.144Z,100365.90
2019-05-12T10:09:49.256Z,100368.02
2019-05-12T10:14:00.119Z,100371.30
2019-05-12T10:18:10.877Z,100370.70
2019-05-12T10:22:14.382Z,100373.20
2019-05-12T10:26:22.175Z,100379.63
2019-05-12T10:30:30.364Z,100374.05
2019-05-12T10:34:40.447Z,100377.12
2019-05-12T10:38:48.477Z,100365.44
2019-05-12T10:42:57.052Z,100373.20
2019-05-12T10:47:05.664Z,100373.24
2019-05-12T10:51:13.543Z,100380.10
2019-05-12T10:55:23.910Z,100382.64
2019-05-12T10:59:33.420Z,100385.80
2019-05-12T11:03:43.049Z,100388.02
2019-05-12T11:07:53.862Z,100384.70
2019-05-12T11:12:03.243Z,100380.70
2019-05-12T11:16:10.534Z,100380.70
2019-05-12T11:20:18.338Z,100378.77
2019-05-12T11:24:26.371Z,100381.41
2019-05-12T11:28:34.356Z,100381.41
2019-05-12T11:32:44.141Z,100391.89
2019-05-12T11:36:54.337Z,100391.53
2019-05-12T11:41:01.623Z,100387.39
2019-05-12T11:45:09.658Z,100383.85
2019-05-12T11:49:21.726Z,100387.56
2019-05-12T11:53:31.151Z,100386.15
2019-05-12T11:57:37.679Z,100373.02
2019-05-12T12:01:49.767Z,100373.02
2019-05-12T12:06:05.563Z,100391.09
2019-05-12T12:10:14.215Z,100383.63
2019-05-12T12:14:23.869Z,100383.53
2019-05-12T12:18:47.945Z,100394.98
2019-05-12T12:22:50.860Z,100394.98
2019-05-12T12:26:58.924Z,100392.94
2019-05-12T12:31:07.829Z,100404.54
2019-05-12T12:35:16.018Z,100401.84
2019-05-12T12:39:23.851Z,100384.58
2019-05-12T12:43:31.914Z,100397.70
2019-05-12T12:47:44.372Z,100397.16
2019-05-12T12:51:48.818Z,100398.34
2019-05-12T12:55:58.762Z,100400.50
2019-05-12T13:00:07.294Z,100401.68
2019-05-12T13:04:14.652Z,100392.89
2019-05-12T13:08:24.772Z,100392.91
2019-05-12T13:12:35.624Z,100377.28
2019-05-12T13:16:43.697Z,100376.03
2019-05-12T13:20:53.826Z,100379.03
2019-05-12T13:25:04.585Z,100365.64
2019-05-12T13:29:09.752Z,100377.19
2019-05-12T13:33:18.441Z,100383.79
2019-05-12T13:37:26.228Z,100381.48
2019-05-12T13:41:34.322Z,100384.30
2019-05-12T13:45:43.966Z,100381.84
2019-05-12T13:49:51.358Z,100378.09
2019-05-12T13:53:59.539Z,100385.33
2019-05-12T13:58:07.328Z,100385.75
2019-05-12T14:02:22.057Z,100381.86
2019-05-12T14:06:32.053Z,100377.56
2019-05-12T14:10:37.389Z,100380.03
2019-05-12T14:14:43.779Z,100382.45
2019-05-12T14:18:57.042Z,100385.31
2019-05-12T14:23:01.143Z,100382.78
2019-05-12T14:27:09.315Z,100394.01
2019-05-12T14:31:26.601Z,100401.27
2019-05-12T14:35:26.397Z,100397.47
2019-05-12T14:39:40.116Z,100397.20
2019-05-12T14:43:47.864Z,100392.50
2019-05-12T14:48:00.003Z,100399.20
2019-05-12T14:52:04.754Z,100401.50
2019-05-12T14:56:14.085Z,100404.61
2019-05-12T15:00:24.076Z,100402.98
2019-05-12T15:04:31.328Z,100400.38
2019-05-12T15:08:40.327Z,100397.59
2019-05-12T15:12:48.118Z,100405.82
2019-05-12T15:16:55.844Z,100394.84
2019-05-12T15:21:05.359Z,100397.72
2019-05-12T15:25:19.137Z,100397.72
2019-05-12T15:29:27.961Z,100394.19
2019-05-12T15:33:35.371Z,100395.04
2019-05-12T15:37:43.862Z,100395.04
2019-05-12T15:41:56.508Z,100396.72
2019-05-12T15:46:01.811Z,100392.75
2019-05-12T15:50:11.219Z,100385.27
2019-05-12T15:54:19.025Z,100394.73
2019-05-12T15:58:26.681Z,100391.15
2019-05-12T16:02:34.581Z,100395.05
2019-05-12T16:06:52.971Z,100393.86
2019-05-12T16:10:53.537Z,100393.86
2019-05-12T16:15:04.562Z,100402.87
2019-05-12T16:19:11.656Z,100397.49
2019-05-12T16:23:28.041Z,100402.09
2019-05-12T16:27:35.625Z,100400.15
2019-05-12T16:31:45.631Z,100396.23
2019-05-12T16:35:49.931Z,100390.53
2019-05-12T16:39:57.728Z,100404.32
2019-05-12T16:44:07.916Z,100407.72
2019-05-12T16:48:29.282Z,100406.09
2019-05-12T16:52:24.572Z,100406.09
2019-05-12T16:56:33.937Z,100415.28
2019-05-12T17:00:45.149Z,100415.77
2019-05-12T17:04:53.953Z,100408.58
2019-05-12T17:09:03.366Z,100402.33
2019-05-12T17:13:13.841Z,100408.98
2019-05-12T17:17:21.408Z,100409.38
2019-05-12T17:21:29.638Z,100418.00
2019-05-12T17:25:37.369Z,100420.17
2019-05-12T17:29:45.171Z,100426.39
2019-05-12T17:33:54.354Z,100434.63
2019-05-12T17:38:04.301Z,100436.77
2019-05-12T17:42:20.889Z,100437.06
2019-05-12T17:46:23.334Z,100438.45
2019-05-12T17:50:31.172Z,100440.87
2019-05-12T17:54:39.103Z,100453.52
2019-05-12T17:58:47.659Z,100456.85
2019-05-12T18:03:14.160Z,100456.86
2019-05-12T18:07:13.314Z,100459.39
2019-05-12T18:11:16.059Z,100459.11
2019-05-12T18:15:32.497Z,100452.19
2019-05-12T18:19:33.820Z,100461.63
2019-05-12T18:23:43.470Z,100463.98
2019-05-12T18:27:51.102Z,100460.63
2019-05-12T18:31:58.979Z,100463.17
2019-05-12T18:36:06.379Z,100467.20
2019-05-12T18:40:14.851Z,100472.06
2019-05-12T18:44:28.984Z,100468.52
2019-05-12T18:48:34.277Z,100476.91
2019-05-12T18:52:43.653Z,100469.52
2019-05-12T18:56:52.472Z,100467.84
2019-05-12T19:01:00.443Z,100474.86
2019-05-12T19:05:12.930Z,100472.51
2019-05-12T19:09:18.711Z,100473.28
2019-05-12T19:13:27.027Z,100479.80
2019-05-12T19:17:35.059Z,100478.41
2019-05-12T19:21:43.818Z,100482.08
2019-05-12T19:25:54.177Z,100475.70
2019-05-12T19:30:04.286Z,100477.39
2019-05-12T19:34:20.045Z,100481.89
2019-05-12T19:38:23.937Z,100485.20
2019-05-12T19:42:31.395Z,100485.02
2019-05-12T19:46:39.765Z,100485.17
2019-05-12T19:50:54.977Z,100476.61
2019-05-12T19:54:58.532Z,100472.92
2019-05-12T19:59:06.379Z,100473.05
2019-05-12T20:03:14.487Z,100473.84
2019-05-12T20:07:23.379Z,100477.87
2019-05-12T20:11:32.160Z,100473.12
2019-05-12T20:15:43.177Z,100467.73
2019-05-12T20:19:49.930Z,100468.46
2019-05-12T20:23:58.028Z,100469.00
2019-05-12T20:28:11.300Z,100464.66
2019-05-12T20:32:16.327Z,100458.62
2019-05-12T20:36:25.927Z,100454.39
2019-05-12T20:40:37.558Z,100445.03
2019-05-12T20:44:45.176Z,100436.19
2019-05-12T20:48:53.943Z,100438.82
2019-05-12T20:53:03.902Z,100431.39
2019-05-12T20:57:14.037Z,100423.17
2019-05-12T21:01:26.639Z,100417.19
2019-05-12T21:05:34.336Z,100422.23
2019-05-12T21:09:44.145Z,100429.36
2019-05-12T21:13:54.575Z,100418.42
2019-05-12T21:18:07.241Z,100421.47
2019-05-12T21:22:14.237Z,100414.82
2019-05-12T21:26:22.812Z,100422.17
2019-05-12T21:30:42.328Z,100414.41
2019-05-12T21:34:52.380Z,100418.24
2019-05-12T21:38:59.515Z,100411.18
2019-05-12T21:43:08.064Z,100410.97
2019-05-12T21:47:15.876Z,100408.72
2019-05-12T21:51:24.132Z,100400.52
2019-05-12T21:55:34.003Z,100397.63
2019-05-12T21:59:41.941Z,100401.16
2019-05-12T22:03:57.872Z,100403.54
2019-05-12T22:08:00.394Z,100397.02
2019-05-12T22:12:08.701Z,100405.66
2019-05-12T22:16:16.288Z,100399.80
2019-05-12T22:20:23.923Z,100395.00
2019-05-12T22:24:37.290Z,100397.50
2019-05-12T22:28:46.693Z,100388.94
2019-05-12T22:32:51.279Z,100391.13
2019-05-12T22:36:59.516Z,100389.83
2019-05-12T22:41:08.993Z,100391.92
2019-05-12T22:45:16.933Z,100388.83
2019-05-12T22:49:25.206Z,100385.97
2019-05-12T22:53:32.867Z,100387.66
2019-05-12T22:57:40.709Z,100378.63
2019-05-12T23:01:48.547Z,100386.33
2019-05-12T23:06:01.420Z,100380.98
2019-05-12T23:10:11.015Z,100385.31
2019-05-12T23:14:20.681Z,100389.63
2019-05-12T23:18:30.692Z,100396.85
2019-05-12T23:22:38.112Z,100396.94
2019-05-12T23:26:47.990Z,100401.75
2019-05-12T23:30:56.493Z,100403.53
2019-05-12T23:35:04.996Z,100407.79
2019-05-12T23:39:14.338Z,100402.00
2019-05-12T23:43:23.794Z,100393.78
2019-05-12T23:47:34.335Z,100396.87
2019-05-12T23:51:43.882Z,100399.70
2019-05-12T23:55:51.519Z,100393.48
2019-05-12T23:59:59.518Z,100399.94
